ěÝzenÝ letovÚho provozu ╚eskÚ republiky
Letiste: LKLN Aktualizace: 19.06.2024 04:31:41  UTC
 METAR LKLN 19.06. 04:30 RRA
METAR LKLN 190430Z AUTO VRB02KT 9999 FEW100 16/14 Q1014=